Time;durP1;ratioP1;P1;durP2;ratioP2;P2;SDS_P1;SDS_P2;PMS_P1;PMS_P2;Temp;Humidity;BMP_temperature;BMP_pressure;BME280_temperature;BME280_humidity;BME280_pressure;Samples;Min_cycle;Max_cycle;Signal;HPM_P1;HPM_P2
2022/01/27 00:00:43;;;;;;;15.65;11.10;;;;;;;-0.06;88.44;97082.89;1717184;83;21026;-80
2022/01/27 00:05:04;;;;;;;15.25;10.85;;;;;;;-0.10;87.95;97091.68;1660768;85;21005;-80
2022/01/27 00:07:16;;;;;;;12.53;9.10;;;;;;;-0.10;88.15;97094.23;1687350;85;21054;-80
2022/01/27 00:12:08;;;;;;;25.15;15.88;;;;;;;-0.04;88.26;97103.23;1694791;85;21011;-80
2022/01/27 00:14:44;;;;;;;13.88;9.73;;;;;;;-0.03;88.27;97109.98;1682287;85;20989;-80
2022/01/27 00:17:13;;;;;;;17.37;11.40;;;;;;;-0.01;88.29;97119.64;1682324;85;21009;-80
2022/01/27 00:19:30;;;;;;;13.08;9.20;;;;;;;0.02;88.15;97132.70;1683175;85;21064;-80
2022/01/27 00:21:56;;;;;;;11.95;9.23;;;;;;;0.05;88.32;97135.05;1684459;84;21064;-80
2022/01/27 00:24:21;;;;;;;12.68;9.83;;;;;;;0.09;88.38;97139.04;1684551;84;20976;-80
2022/01/27 00:26:47;;;;;;;10.68;9.38;;;;;;;0.08;88.21;97148.45;1684654;85;21063;-80
2022/01/27 00:29:13;;;;;;;14.03;10.63;;;;;;;0.08;88.20;97143.80;1684364;85;21340;-80
2022/01/27 00:31:38;;;;;;;15.75;11.30;;;;;;;0.07;88.13;97144.25;1694646;85;21011;-80
2022/01/27 00:34:04;;;;;;;12.85;10.48;;;;;;;0.08;88.01;97128.46;1694939;85;20988;-80
2022/01/27 00:36:32;;;;;;;14.98;11.28;;;;;;;0.05;87.71;97122.28;1684467;85;20945;-80
2022/01/27 00:38:58;;;;;;;15.18;11.18;;;;;;;0.04;87.68;97107.41;1684504;84;21123;-80
2022/01/27 00:41:23;;;;;;;11.97;9.60;;;;;;;-0.01;87.64;97104.31;1684489;84;21394;-80
2022/01/27 00:43:49;;;;;;;16.10;10.93;;;;;;;-0.04;87.63;97116.82;1684557;84;20978;-80
2022/01/27 00:46:17;;;;;;;12.47;9.88;;;;;;;-0.02;87.86;97132.87;1684354;84;21024;-80
2022/01/27 00:48:46;;;;;;;15.43;11.22;;;;;;;0.01;87.88;97140.82;1684394;85;21012;-80
2022/01/27 00:51:15;;;;;;;14.33;12.15;;;;;;;-0.01;87.70;97134.50;1694826;85;20976;-80
2022/01/27 00:56:21;;;;;;;15.75;10.95;;;;;;;-0.06;87.64;97132.71;1684410;85;21455;-80
2022/01/27 00:58:57;;;;;;;15.83;11.90;;;;;;;-0.06;87.65;97121.22;1683165;85;20976;-80
2022/01/27 01:01:16;;;;;;;14.95;12.33;;;;;;;-0.09;87.81;97122.70;1692057;84;21091;-80
2022/01/27 01:03:44;;;;;;;17.07;12.70;;;;;;;-0.07;87.91;97122.59;1664551;85;21104;-80
2022/01/27 01:06:23;;;;;;;16.67;13.08;;;;;;;-0.09;87.85;97118.86;1678095;83;21399;-80
2022/01/27 01:19:19;;;;;;;17.80;12.65;;;;;;;-0.12;88.40;97105.47;1640196;86;21005;-80
2022/01/27 01:29:55;;;;;;;42.90;22.02;;;;;;;-0.14;88.47;97098.38;1669071;85;20980;-80
2022/01/27 01:32:47;;;;;;;37.45;24.37;;;;;;;-0.15;88.70;97091.17;1666975;85;21067;-80
2022/01/27 01:34:48;;;;;;;34.45;24.50;;;;;;;-0.12;88.90;97095.26;1663897;86;21052;-80
2022/01/27 01:37:17;;;;;;;23.62;19.05;;;;;;;-0.11;89.07;97095.16;1669135;85;21108;-80
2022/01/27 01:39:42;;;;;;;15.78;13.15;;;;;;;-0.12;88.96;97093.52;1668745;86;21067;-80
2022/01/27 01:42:10;;;;;;;16.90;13.25;;;;;;;-0.15;88.90;97095.00;1669137;86;21131;-80
2022/01/27 01:44:36;;;;;;;23.52;17.77;;;;;;;-0.13;89.19;97091.06;1669096;86;21063;-80
2022/01/27 01:47:02;;;;;;;17.00;13.60;;;;;;;-0.15;89.01;97103.94;1668865;86;21411;-80
2022/01/27 01:49:28;;;;;;;16.77;12.63;;;;;;;-0.14;89.25;97099.64;1668931;86;21093;-80
2022/01/27 01:51:57;;;;;;;17.80;13.55;;;;;;;-0.13;89.26;97095.72;1668920;86;21051;-80
2022/01/27 01:54:23;;;;;;;21.25;15.13;;;;;;;-0.12;89.53;97092.24;1668248;86;20991;-80
2022/01/27 01:56:49;;;;;;;20.75;15.35;;;;;;;-0.11;89.50;97096.44;1669012;86;21402;-80
2022/01/27 01:59:14;;;;;;;18.27;14.75;;;;;;;-0.14;89.25;97107.31;1669010;86;21059;-80
2022/01/27 02:01:40;;;;;;;15.05;11.53;;;;;;;-0.17;89.43;97114.69;1668817;85;20991;-80
2022/01/27 02:04:09;;;;;;;15.85;12.55;;;;;;;-0.15;89.57;97107.77;1670219;83;21375;-80
2022/01/27 02:06:41;;;;;;;17.42;13.50;;;;;;;-0.12;89.59;97101.64;1688961;84;21043;-80
2022/01/27 02:20:09;;;;;;;18.15;14.00;;;;;;;-0.10;89.75;97085.75;1643077;86;21423;-80
2022/01/27 02:22:34;;;;;;;15.63;11.48;;;;;;;-0.13;89.62;97089.79;1669731;85;20980;-80
2022/01/27 02:25:00;;;;;;;19.73;14.58;;;;;;;-0.14;89.78;97085.60;1668863;86;20975;-80
2022/01/27 02:27:26;;;;;;;21.52;14.73;;;;;;;-0.13;89.90;97087.23;1669019;86;20975;-80
2022/01/27 02:29:51;;;;;;;18.75;13.13;;;;;;;-0.15;89.85;97080.95;1668922;86;21043;-80
2022/01/27 02:32:19;;;;;;;20.72;14.90;;;;;;;-0.21;89.68;97059.61;1668461;86;21562;-80
2022/01/27 02:34:45;;;;;;;20.43;14.40;;;;;;;-0.16;89.80;97069.09;1668976;86;21060;-80
2022/01/27 02:37:11;;;;;;;22.15;15.40;;;;;;;-0.19;89.61;97066.72;1668908;86;20968;-80
2022/01/27 02:39:36;;;;;;;20.97;14.87;;;;;;;-0.17;89.85;97062.78;1668789;86;21031;-80
2022/01/27 02:42:23;;;;;;;26.37;17.92;;;;;;;-0.17;89.70;97061.05;1668728;86;20988;-80
2022/01/27 02:45:08;;;;;;;34.98;19.02;;;;;;;-0.20;89.67;97052.77;1668584;86;21115;-80
2022/01/27 02:47:34;;;;;;;23.75;14.18;;;;;;;-0.24;89.56;97049.60;1668984;86;21314;-80
2022/01/27 02:50:00;;;;;;;41.05;23.80;;;;;;;-0.26;89.67;97050.16;1668943;86;21065;-80
2022/01/27 02:52:25;;;;;;;25.08;18.30;;;;;;;-0.27;89.69;97054.91;1669071;86;21047;-80
2022/01/27 02:54:51;;;;;;;31.82;18.65;;;;;;;-0.29;89.77;97050.36;1669481;85;21038;-80
2022/01/27 02:57:18;;;;;;;33.67;18.80;;;;;;;-0.28;89.96;97046.89;1668828;86;21047;-80
2022/01/27 02:59:44;;;;;;;34.83;18.55;;;;;;;-0.26;89.85;97041.69;1668897;86;20971;-80
2022/01/27 03:02:09;;;;;;;34.65;17.35;;;;;;;-0.26;89.73;97037.39;1669032;85;20975;-80
2022/01/27 03:04:36;;;;;;;21.27;13.05;;;;;;;-0.25;89.68;97032.64;1669787;83;21561;-80
2022/01/27 03:07:05;;;;;;;24.05;15.98;;;;;;;-0.28;89.46;97030.29;1672676;85;21000;-80
2022/01/27 03:09:32;;;;;;;23.62;15.38;;;;;;;-0.31;89.48;97033.05;1688541;85;21015;-80
2022/01/27 03:12:01;;;;;;;19.57;12.78;;;;;;;-0.31;89.53;97035.14;1689017;85;21475;-80
2022/01/27 03:14:26;;;;;;;14.10;9.23;;;;;;;-0.31;89.48;97035.14;1688403;85;21110;-80
2022/01/27 03:16:56;;;;;;;18.60;11.85;;;;;;;-0.28;89.28;97035.86;1689169;85;21035;-80
2022/01/27 03:19:21;;;;;;;23.57;16.30;;;;;;;-0.28;89.18;97039.69;1688876;85;21019;-80
2022/01/27 03:21:47;;;;;;;24.63;15.95;;;;;;;-0.25;89.53;97030.09;1684698;85;21027;-80
2022/01/27 03:24:14;;;;;;;16.87;13.53;;;;;;;-0.20;89.56;97036.98;1684327;85;21003;-80
2022/01/27 03:26:41;;;;;;;11.78;9.33;;;;;;;-0.15;89.59;97031.14;1688746;85;21007;-80
2022/01/27 03:29:07;;;;;;;18.67;13.93;;;;;;;-0.09;89.51;97024.80;1689215;85;20979;-80
2022/01/27 03:31:33;;;;;;;10.25;8.40;;;;;;;-0.03;89.22;97012.89;1688676;85;20971;-80
2022/01/27 03:33:58;;;;;;;8.30;6.65;;;;;;;-0.09;88.40;97011.57;1688983;85;21394;-80
2022/01/27 03:36:25;;;;;;;9.73;7.33;;;;;;;-0.10;88.38;97009.12;1688996;85;21003;-80
2022/01/27 03:38:51;;;;;;;7.80;5.70;;;;;;;-0.06;88.75;97003.70;1688804;85;21414;-80
2022/01/27 03:41:21;;;;;;;7.90;5.80;;;;;;;-0.07;88.44;96998.70;1688852;85;21034;-80
2022/01/27 03:43:50;;;;;;;7.92;5.00;;;;;;;-0.13;88.16;96982.50;1689252;85;21020;-80
2022/01/27 03:46:16;;;;;;;7.22;5.83;;;;;;;-0.06;88.17;96992.66;1688678;85;21585;-80
2022/01/27 03:48:42;;;;;;;5.97;5.37;;;;;;;-0.04;88.13;96991.64;1688962;85;20952;-80
2022/01/27 03:51:07;;;;;;;6.47;5.17;;;;;;;-0.03;88.07;96986.06;1689107;85;20996;-80
2022/01/27 03:53:33;;;;;;;6.80;5.85;;;;;;;-0.04;88.11;96983.97;1688844;85;21402;-80
2022/01/27 03:56:00;;;;;;;6.28;5.35;;;;;;;-0.02;88.34;96975.75;1688821;85;21103;-80
2022/01/27 03:58:25;;;;;;;6.75;5.62;;;;;;;0.01;88.27;96987.98;1689065;85;21384;-80
2022/01/27 04:00:51;;;;;;;8.40;7.10;;;;;;;0.04;87.93;96978.84;1689068;85;21057;-80
2022/01/27 04:03:19;;;;;;;5.80;4.70;;;;;;;0.06;87.88;96982.10;1689023;85;21063;-80
2022/01/27 04:05:51;;;;;;;13.60;9.83;;;;;;;0.07;87.96;96986.29;1681307;83;21031;-80
2022/01/27 04:08:13;;;;;;;10.10;6.60;;;;;;;0.06;88.02;96987.21;1671986;85;21021;-80
2022/01/27 04:10:38;;;;;;;13.98;9.18;;;;;;;0.10;88.29;96998.86;1662903;85;21008;-80
2022/01/27 04:13:07;;;;;;;14.15;8.35;;;;;;;0.09;88.01;97002.33;1684534;85;21328;-80
2022/01/27 04:15:34;;;;;;;13.65;9.93;;;;;;;0.12;88.33;96997.02;1684451;85;21083;-80
2022/01/27 04:18:01;;;;;;;9.98;6.97;;;;;;;0.12;88.22;96988.89;1684492;85;21390;-80
2022/01/27 04:20:26;;;;;;;6.97;6.25;;;;;;;0.17;88.47;96982.21;1662965;85;21389;-80
2022/01/27 04:22:52;;;;;;;9.75;7.60;;;;;;;0.21;88.32;96977.24;1684542;85;20984;-80
2022/01/27 04:25:18;;;;;;;10.68;8.50;;;;;;;0.24;88.39;96965.07;1684321;85;20992;-80
2022/01/27 04:27:48;;;;;;;16.42;11.00;;;;;;;0.30;88.71;96957.44;1684386;85;21015;-80
2022/01/27 04:30:16;;;;;;;8.18;7.25;;;;;;;0.35;88.82;96954.59;1683535;85;21048;-80
2022/01/27 04:32:45;;;;;;;14.23;10.68;;;;;;;0.35;88.27;96957.96;1683858;85;20988;-80
2022/01/27 04:35:10;;;;;;;18.55;14.20;;;;;;;0.35;88.43;96957.14;1684016;85;21379;-79
2022/01/27 04:37:40;;;;;;;18.20;14.13;;;;;;;0.38;88.51;96954.38;1684413;85;21423;-80
2022/01/27 04:40:10;;;;;;;18.55;13.18;;;;;;;0.40;88.46;96973.80;1684042;85;20980;-80
2022/01/27 04:42:45;;;;;;;20.12;15.30;;;;;;;0.37;88.38;96966.34;1683533;85;20977;-80
2022/01/27 04:45:03;;;;;;;28.77;21.37;;;;;;;0.39;88.52;96954.27;1681128;85;20989;-80
2022/01/27 04:47:33;;;;;;;39.45;24.35;;;;;;;0.41;88.39;96957.53;1683949;85;21060;-80
2022/01/27 04:49:54;;;;;;;40.63;23.90;;;;;;;0.39;88.09;96960.66;1683661;85;21052;-80
2022/01/27 04:52:19;;;;;;;16.65;12.05;;;;;;;0.40;88.30;96953.80;1684493;85;21388;-80
2022/01/27 04:55:10;;;;;;;14.30;10.20;;;;;;;0.38;87.94;96955.66;1684457;85;20992;-80
2022/01/27 04:57:13;;;;;;;11.03;7.70;;;;;;;0.32;88.00;96951.75;1650132;87;21071;-80
2022/01/27 04:59:42;;;;;;;8.25;6.15;;;;;;;0.29;87.92;96959.17;1653332;86;21044;-80
2022/01/27 05:02:15;;;;;;;6.92;5.80;;;;;;;0.27;87.68;96953.81;1684819;85;21082;-80
2022/01/27 05:04:40;;;;;;;7.47;5.42;;;;;;;0.25;87.67;96947.53;1673422;83;21392;-80
2022/01/27 05:07:02;;;;;;;12.70;9.23;;;;;;;0.24;87.69;96947.17;1718374;83;20977;-80
2022/01/27 05:09:28;;;;;;;9.18;6.28;;;;;;;0.26;87.84;96938.13;1719583;83;20993;-80
2022/01/27 05:11:59;;;;;;;7.47;5.50;;;;;;;0.25;87.80;96941.60;1719508;83;21054;-80
2022/01/27 05:14:26;;;;;;;7.37;5.12;;;;;;;0.24;87.74;96932.30;1716863;83;21022;-80
2022/01/27 05:16:50;;;;;;;7.35;5.87;;;;;;;0.25;87.69;96938.59;1708723;84;21396;-80
2022/01/27 05:19:16;;;;;;;6.58;4.62;;;;;;;0.27;87.70;96939.30;1709879;84;20916;-80
2022/01/27 05:21:41;;;;;;;6.33;4.85;;;;;;;0.28;87.37;96931.16;1709604;84;21003;-80
2022/01/27 05:24:07;;;;;;;7.80;6.10;;;;;;;0.30;87.38;96934.43;1709779;83;21420;-80
2022/01/27 05:26:35;;;;;;;5.65;4.85;;;;;;;0.29;87.42;96934.08;1709828;84;21034;-80
2022/01/27 05:29:03;;;;;;;6.58;5.50;;;;;;;0.30;87.48;96940.82;1709651;84;21015;-80
2022/01/27 05:31:29;;;;;;;7.50;5.92;;;;;;;0.31;87.74;96938.62;1709614;84;20962;-80
2022/01/27 05:33:54;;;;;;;13.25;8.85;;;;;;;0.32;87.75;96939.44;1709698;84;20915;-80
2022/01/27 05:36:20;;;;;;;88.45;42.78;;;;;;;0.35;87.73;96937.97;1709771;84;21414;-80
2022/01/27 05:38:46;;;;;;;43.63;22.90;;;;;;;0.38;87.77;96942.87;1709620;83;20978;-80
2022/01/27 05:41:14;;;;;;;19.25;12.70;;;;;;;0.39;87.76;96933.81;1697663;82;21057;-80
2022/01/27 05:43:41;;;;;;;17.85;11.45;;;;;;;0.42;87.74;96931.04;1693510;84;21341;-80
2022/01/27 05:46:06;;;;;;;13.93;10.82;;;;;;;0.42;87.53;96908.49;1709349;84;21029;-80
2022/01/27 05:48:32;;;;;;;14.75;10.65;;;;;;;0.40;87.59;96905.23;1709820;84;21048;-80
2022/01/27 05:50:58;;;;;;;16.25;9.25;;;;;;;0.37;87.51;96908.82;1709645;84;21446;-80
2022/01/27 05:53:25;;;;;;;25.23;12.03;;;;;;;0.38;87.56;96903.25;1709809;84;21314;-80
2022/01/27 05:55:50;;;;;;;11.73;8.88;;;;;;;0.35;87.27;96894.52;1709637;83;20967;-80
2022/01/27 05:58:16;;;;;;;21.27;10.23;;;;;;;0.36;87.36;96887.20;1709912;83;21002;-80
2022/01/27 06:00:42;;;;;;;7.78;6.35;;;;;;;0.35;87.24;96882.55;1689452;84;21338;-80
2022/01/27 06:03:07;;;;;;;9.93;5.70;;;;;;;0.34;87.10;96874.53;1709853;83;20916;-80
2022/01/27 06:05:33;;;;;;;48.25;28.27;;;;;;;0.33;87.16;96872.08;1692085;84;20988;-80
2022/01/27 06:07:59;;;;;;;10.13;7.03;;;;;;;0.34;87.46;96873.25;1688807;85;21398;-80
2022/01/27 06:10:25;;;;;;;37.35;11.93;;;;;;;0.34;87.32;96878.36;1688942;85;21040;-80
2022/01/27 06:12:56;;;;;;;8.60;5.00;;;;;;;0.36;87.31;96876.52;1688916;85;21064;-80
2022/01/27 06:15:23;;;;;;;6.20;5.58;;;;;;;0.37;87.13;96869.20;1688511;85;21024;-80
2022/01/27 06:17:49;;;;;;;7.35;5.67;;;;;;;0.39;87.09;96858.86;1688844;85;21355;-80
2022/01/27 06:20:17;;;;;;;7.95;5.60;;;;;;;0.39;87.10;96860.14;1669401;85;20949;-80
2022/01/27 06:22:43;;;;;;;5.90;4.42;;;;;;;0.38;86.96;96856.77;1688509;85;20996;-80
2022/01/27 06:25:09;;;;;;;6.90;4.62;;;;;;;0.36;87.14;96856.06;1688956;85;21040;-80
2022/01/27 06:27:35;;;;;;;4.75;4.15;;;;;;;0.38;86.97;96841.43;1688533;85;21024;-80
2022/01/27 06:30:05;;;;;;;8.50;5.05;;;;;;;0.40;86.52;96845.97;1688157;85;21012;-80
2022/01/27 06:32:31;;;;;;;7.42;5.70;;;;;;;0.42;86.76;96842.84;1688827;85;21039;-80
2022/01/27 06:34:57;;;;;;;12.90;7.60;;;;;;;0.47;86.80;96849.71;1688802;85;21054;-80
2022/01/27 06:37:23;;;;;;;7.03;5.08;;;;;;;0.51;86.68;96849.88;1688877;85;21442;-80
2022/01/27 06:39:49;;;;;;;5.97;5.10;;;;;;;0.52;86.38;96842.55;1689005;85;21040;-80
2022/01/27 06:42:14;;;;;;;7.50;5.17;;;;;;;0.54;86.59;96852.67;1688809;85;21010;-81
2022/01/27 06:44:40;;;;;;;8.35;6.95;;;;;;;0.55;86.74;96856.40;1688862;85;21465;-80
2022/01/27 06:47:06;;;;;;;6.03;4.58;;;;;;;0.58;86.63;96846.41;1688808;85;21039;-80
2022/01/27 06:49:32;;;;;;;5.97;4.47;;;;;;;0.64;86.76;96845.15;1688871;85;21006;-80
2022/01/27 06:51:57;;;;;;;9.90;8.43;;;;;;;0.67;86.08;96829.61;1688943;85;21020;-80
2022/01/27 06:54:23;;;;;;;5.58;4.33;;;;;;;0.68;86.01;96829.96;1688885;85;21539;-80
2022/01/27 06:56:49;;;;;;;7.15;5.17;;;;;;;0.70;86.20;96837.06;1687888;85;21012;-80
2022/01/27 06:59:15;;;;;;;7.20;5.25;;;;;;;0.69;85.95;96835.43;1688797;85;21004;-80
2022/01/27 07:01:40;;;;;;;12.63;8.30;;;;;;;0.73;85.67;96835.09;1689024;85;21406;-80
2022/01/27 07:04:07;;;;;;;14.78;8.90;;;;;;;0.76;86.05;96832.31;1688369;83;21043;-80
2022/01/27 07:06:34;;;;;;;9.03;7.25;;;;;;;0.77;85.83;96839.52;1684872;85;21029;-80
2022/01/27 07:09:00;;;;;;;13.62;8.00;;;;;;;0.79;85.92;96835.10;1684836;85;21024;-80
2022/01/27 07:11:26;;;;;;;14.30;8.63;;;;;;;0.77;85.71;96841.61;1684697;85;21431;-80
2022/01/27 07:13:51;;;;;;;28.40;11.63;;;;;;;0.77;85.59;96840.33;1699525;83;20938;-80
2022/01/27 07:16:17;;;;;;;9.53;6.33;;;;;;;0.78;85.75;96842.42;1709669;83;21002;-80
2022/01/27 07:18:43;;;;;;;8.40;5.83;;;;;;;0.81;86.02;96835.81;1705678;82;20919;-80
2022/01/27 07:21:09;;;;;;;15.85;8.35;;;;;;;0.83;85.83;96841.19;1695549;84;20978;-80
2022/01/27 07:23:35;;;;;;;9.90;6.85;;;;;;;0.86;86.03;96831.20;1709841;83;21022;-80
2022/01/27 07:26:00;;;;;;;11.25;6.80;;;;;;;0.85;85.93;96827.82;1709883;84;21318;-80
2022/01/27 07:28:26;;;;;;;28.27;11.08;;;;;;;0.87;85.90;96828.98;1709814;84;20962;-80
2022/01/27 07:30:52;;;;;;;13.38;6.80;;;;;;;0.90;85.69;96827.48;1709914;83;20919;-80
2022/01/27 07:33:17;;;;;;;28.30;11.45;;;;;;;0.91;85.49;96817.59;1689477;84;21365;-80
2022/01/27 07:35:43;;;;;;;42.93;14.53;;;;;;;0.94;85.32;96819.92;1689730;84;20963;-80
2022/01/27 07:38:09;;;;;;;19.62;8.28;;;;;;;1.01;85.48;96807.52;1709919;83;20983;-80
2022/01/27 07:40:34;;;;;;;14.85;7.53;;;;;;;1.06;85.09;96784.49;1710088;83;20966;-80
2022/01/27 07:43:01;;;;;;;7.30;5.53;;;;;;;1.15;85.01;96792.78;1689418;84;21295;-80
2022/01/27 07:45:26;;;;;;;70.37;33.42;;;;;;;1.24;85.05;96796.86;1709980;84;21066;-80
2022/01/27 07:47:52;;;;;;;81.75;37.23;;;;;;;1.34;85.04;96799.09;1709847;83;21046;-80
2022/01/27 07:50:19;;;;;;;23.92;11.22;;;;;;;1.43;85.13;96788.15;1709770;84;22072;-80
2022/01/27 07:52:45;;;;;;;31.65;13.90;;;;;;;1.53;84.96;96779.32;1709839;84;20966;-80
2022/01/27 07:55:11;;;;;;;90.45;28.73;;;;;;;1.65;84.91;96785.61;1689551;84;21360;-80
2022/01/27 07:57:37;;;;;;;37.40;12.28;;;;;;;1.72;84.49;96789.33;1709711;84;21030;-80
2022/01/27 08:00:05;;;;;;;9.48;5.35;;;;;;;1.73;84.27;96792.70;1709874;84;20987;-80
2022/01/27 08:02:31;;;;;;;7.22;4.72;;;;;;;1.72;83.94;96782.92;1709943;84;21252;-80
2022/01/27 08:04:56;;;;;;;12.90;6.05;;;;;;;1.74;83.46;96775.93;1710210;83;21058;-80
2022/01/27 08:07:22;;;;;;;15.90;8.20;;;;;;;1.78;83.23;96786.28;1709545;84;21350;-80
2022/01/27 08:09:50;;;;;;;24.92;17.73;;;;;;;1.81;83.14;96789.11;1709291;83;21007;-80
2022/01/27 08:12:16;;;;;;;17.17;9.95;;;;;;;1.83;82.67;96793.64;1709564;84;21326;-80
2022/01/27 08:14:42;;;;;;;49.30;19.02;;;;;;;1.80;82.42;96799.01;1709591;84;20999;-80
2022/01/27 08:17:07;;;;;;;13.90;7.35;;;;;;;1.80;82.72;96784.91;1709627;84;21057;-80
2022/01/27 08:19:33;;;;;;;9.63;6.62;;;;;;;1.79;82.48;96784.10;1701012;84;21073;-80
2022/01/27 08:22:00;;;;;;;12.18;7.80;;;;;;;1.79;82.34;96781.53;1683964;83;21045;-80
2022/01/27 08:24:26;;;;;;;19.57;10.18;;;;;;;1.82;82.72;96777.11;1681219;85;20958;-81
2022/01/27 08:26:58;;;;;;;30.10;14.33;;;;;;;1.85;82.39;96764.87;1681206;85;21364;-80
2022/01/27 08:29:23;;;;;;;24.82;19.17;;;;;;;1.92;82.55;96774.16;1680387;85;21025;-80
2022/01/27 08:34:30;;;;;;;56.50;27.80;;;;;;;2.25;82.80;96770.72;1661177;85;21352;-81
2022/01/27 08:36:51;;;;;;;87.95;45.33;;;;;;;2.44;82.53;96761.95;1680211;85;21387;-81
2022/01/27 08:39:16;;;;;;;59.88;26.37;;;;;;;2.57;81.97;96739.95;1681152;85;21021;-80
2022/01/27 08:41:42;;;;;;;37.45;18.17;;;;;;;2.64;81.71;96739.35;1681154;85;20966;-80
2022/01/27 08:44:08;;;;;;;35.30;15.75;;;;;;;2.67;80.88;96737.00;1681170;85;21401;-80
2022/01/27 08:46:36;;;;;;;27.20;13.20;;;;;;;2.50;80.82;96742.67;1680976;85;20970;-80
2022/01/27 08:49:01;;;;;;;23.67;12.25;;;;;;;2.42;81.14;96745.84;1681112;85;21356;-80
2022/01/27 08:51:29;;;;;;;16.60;11.38;;;;;;;2.43;81.55;96754.34;1681206;85;20997;-80
2022/01/27 08:53:54;;;;;;;18.57;12.60;;;;;;;2.39;81.59;96762.76;1681164;85;21356;-80
2022/01/27 08:56:20;;;;;;;17.35;11.90;;;;;;;2.34;81.70;96776.42;1681623;85;20969;-80
2022/01/27 08:58:46;;;;;;;17.92;11.88;;;;;;;2.30;81.55;96778.42;1681353;85;21058;-80
2022/01/27 09:01:11;;;;;;;33.50;18.07;;;;;;;2.25;81.05;96770.25;1681025;85;20946;-80
2022/01/27 09:03:38;;;;;;;15.13;10.03;;;;;;;2.24;81.34;96761.41;1681197;85;21324;-80
2022/01/27 09:06:04;;;;;;;13.80;9.63;;;;;;;2.24;81.04;96762.69;1687260;85;21001;-80
2022/01/27 09:08:29;;;;;;;9.83;8.13;;;;;;;2.22;80.63;96760.72;1684774;84;20986;-80
2022/01/27 09:10:55;;;;;;;10.70;8.90;;;;;;;2.20;80.31;96764.68;1681094;85;21034;-80
2022/01/27 09:13:21;;;;;;;12.28;7.97;;;;;;;2.20;80.23;96756.98;1681367;85;20938;-80
2022/01/27 09:15:49;;;;;;;11.35;8.98;;;;;;;2.25;80.06;96757.90;1681188;85;21002;-80
2022/01/27 09:18:16;;;;;;;13.53;9.65;;;;;;;2.25;79.89;96756.15;1681264;85;21025;-80
2022/01/27 09:20:43;;;;;;;9.85;7.40;;;;;;;2.19;79.56;96763.52;1681491;85;20958;-80
2022/01/27 09:23:14;;;;;;;15.55;10.03;;;;;;;2.11;79.43;96757.70;1681314;85;21368;-80
2022/01/27 09:25:42;;;;;;;16.45;11.18;;;;;;;2.03;79.83;96769.84;1680738;84;21045;-80
2022/01/27 09:28:05;;;;;;;22.22;14.90;;;;;;;1.98;79.99;96773.71;1680813;85;20998;-80
2022/01/27 09:30:30;;;;;;;22.75;16.70;;;;;;;1.89;79.84;96782.09;1681463;85;20998;-80
2022/01/27 09:32:57;;;;;;;24.45;17.67;;;;;;;1.88;80.32;96776.63;1681446;85;20985;-80
2022/01/27 09:35:23;;;;;;;26.80;16.02;;;;;;;1.87;80.55;96762.19;1681508;85;21373;-80
2022/01/27 09:37:48;;;;;;;22.85;14.63;;;;;;;1.87;80.01;96759.63;1681233;85;21050;-80
2022/01/27 09:40:15;;;;;;;23.85;16.77;;;;;;;1.76;80.02;96754.84;1681334;85;21018;-80
2022/01/27 09:42:48;;;;;;;21.77;15.72;;;;;;;1.68;80.52;96757.66;1681407;85;21022;-80
2022/01/27 09:45:12;;;;;;;22.55;14.58;;;;;;;1.63;80.63;96761.05;1680516;85;21313;-80
2022/01/27 09:47:41;;;;;;;23.73;13.83;;;;;;;1.54;80.34;96765.58;1681185;85;21032;-80
2022/01/27 09:50:08;;;;;;;18.37;12.88;;;;;;;1.42;80.17;96763.48;1681053;85;21038;-80
2022/01/27 09:52:33;;;;;;;22.80;13.45;;;;;;;1.40;80.41;96749.51;1681066;85;20973;-80
2022/01/27 09:54:59;;;;;;;16.95;11.85;;;;;;;1.43;80.36;96732.63;1681369;85;20997;-80
2022/01/27 09:57:25;;;;;;;21.25;13.43;;;;;;;1.45;80.36;96731.23;1681393;85;21447;-80
2022/01/27 09:59:50;;;;;;;23.18;15.85;;;;;;;1.43;80.44;96724.13;1681117;85;21376;-80
2022/01/27 10:02:21;;;;;;;26.10;15.38;;;;;;;1.38;80.09;96722.40;1661966;85;21037;-80
2022/01/27 10:04:52;;;;;;;40.35;19.30;;;;;;;1.33;79.93;96705.30;1680295;85;21437;-80
2022/01/27 10:07:23;;;;;;;33.70;17.67;;;;;;;1.31;80.54;96704.14;1656196;86;21052;-80
2022/01/27 10:10:12;;;;;;;31.53;15.90;;;;;;;1.34;80.47;96705.64;1661254;86;21374;-80
2022/01/27 10:12:46;;;;;;;19.15;12.85;;;;;;;1.37;80.75;96708.78;1661071;86;22019;-80
2022/01/27 10:15:21;;;;;;;16.80;12.20;;;;;;;1.45;80.74;96683.86;1661130;86;21023;-80
2022/01/27 10:18:16;;;;;;;20.25;12.35;;;;;;;1.54;80.89;96670.36;1665138;85;21178;-80
2022/01/27 10:20:53;;;;;;;19.25;12.68;;;;;;;1.66;80.77;96665.56;1652512;87;21309;-80
2022/01/27 10:23:22;;;;;;;34.88;19.23;;;;;;;1.74;80.35;96660.64;1656285;86;21417;-80
2022/01/27 10:25:53;;;;;;;36.30;19.48;;;;;;;1.82;80.57;96643.88;1661200;86;21035;-80
2022/01/27 10:31:05;;;;;;;13.78;7.80;;;;;;;1.98;80.18;96625.88;1654143;86;21096;-80
2022/01/27 10:34:02;;;;;;;15.32;9.08;;;;;;;1.93;79.11;96619.47;1655141;86;21075;-80
2022/01/27 10:36:36;;;;;;;22.07;15.53;;;;;;;1.91;78.88;96601.66;1661034;86;20965;-80
2022/01/27 10:39:05;;;;;;;10.38;7.45;;;;;;;1.91;78.62;96597.00;1661215;86;21040;-81
2022/01/27 10:41:34;;;;;;;18.92;11.08;;;;;;;1.83;77.98;96576.32;1661192;86;21039;-80
2022/01/27 10:44:15;;;;;;;15.28;9.53;;;;;;;1.75;78.42;96579.01;1661136;86;21028;-80
2022/01/27 10:47:14;;;;;;;19.30;9.93;;;;;;;1.74;78.40;96592.75;1661052;86;21031;-80
2022/01/27 10:49:36;;;;;;;;;;;;;;;1.76;78.22;96577.26;1662132;86;21500;-80
2022/01/27 10:52:03;;;;;;;19.77;12.53;;;;;;;1.77;78.33;96569.45;1661008;86;20197;-81
2022/01/27 10:54:48;;;;;;;17.87;8.80;;;;;;;1.82;78.29;96562.70;1661060;86;21027;-80
2022/01/27 10:57:07;;;;;;;12.33;8.03;;;;;;;1.83;78.05;96564.79;1658964;86;21004;-80
2022/01/27 10:59:33;;;;;;;11.25;7.50;;;;;;;1.80;77.74;96551.30;1641198;86;21453;-80
2022/01/27 11:02:08;;;;;;;15.65;9.83;;;;;;;1.79;77.32;96559.11;1661194;86;21030;-80
2022/01/27 11:04:40;;;;;;;17.35;10.48;;;;;;;1.80;77.27;96561.55;1643444;86;21123;-80
2022/01/27 11:07:09;;;;;;;27.27;14.85;;;;;;;1.93;77.84;96561.34;1665777;85;21355;-80
2022/01/27 11:09:42;;;;;;;12.60;7.70;;;;;;;2.01;77.51;96570.52;1637727;86;21109;-80
2022/01/27 11:12:11;;;;;;;10.93;7.60;;;;;;;2.11;77.84;96571.86;1666445;86;21007;-80
2022/01/27 11:14:35;;;;;;;11.03;8.05;;;;;;;2.21;77.47;96566.80;1661997;86;21419;-80
2022/01/27 11:17:06;;;;;;;13.10;8.88;;;;;;;2.27;77.36;96561.97;1672510;83;21016;-80
2022/01/27 11:22:03;;;;;;;14.10;11.38;;;;;;;2.52;77.93;96563.81;1684521;85;21355;-80
2022/01/27 11:24:32;;;;;;;12.75;9.58;;;;;;;2.64;77.93;96570.50;1683931;85;20984;-80
2022/01/27 11:27:00;;;;;;;25.85;15.58;;;;;;;2.73;77.63;96563.30;1684561;85;21490;-80
2022/01/27 11:29:26;;;;;;;17.30;11.63;;;;;;;2.87;77.41;96556.53;1684656;85;21060;-80
2022/01/27 11:32:16;;;;;;;16.50;10.90;;;;;;;2.95;76.97;96539.22;1684750;85;21347;-80
2022/01/27 11:34:53;;;;;;;11.73;8.40;;;;;;;3.01;76.40;96529.23;1684758;85;21020;-80
2022/01/27 11:37:36;;;;;;;10.48;8.90;;;;;;;2.99;76.24;96521.32;1684610;85;21430;-81
2022/01/27 11:40:08;;;;;;;12.23;9.05;;;;;;;3.03;76.66;96520.58;1684507;85;20991;-80
2022/01/27 11:42:43;;;;;;;10.30;7.75;;;;;;;3.15;77.08;96527.23;1684697;85;20996;-80
2022/01/27 11:45:28;;;;;;;20.90;12.60;;;;;;;3.25;76.80;96535.31;1684603;85;21093;-80
2022/01/27 11:48:06;;;;;;;12.98;8.73;;;;;;;3.32;76.52;96524.02;1684426;85;21536;-80
2022/01/27 11:50:37;;;;;;;17.45;12.07;;;;;;;3.27;75.40;96532.61;1684118;85;20980;-80
2022/01/27 11:53:08;;;;;;;13.88;9.75;;;;;;;3.20;75.47;96507.91;1683320;85;21092;-80
2022/01/27 11:55:40;;;;;;;14.55;10.23;;;;;;;3.09;75.08;96505.92;1684620;85;21016;-80
2022/01/27 11:58:19;;;;;;;13.30;8.95;;;;;;;3.03;74.92;96506.46;1684729;85;21083;-80
2022/01/27 12:01:06;;;;;;;10.13;6.75;;;;;;;2.96;73.75;96499.30;1684601;85;21506;-80
2022/01/27 12:03:33;;;;;;;11.73;8.98;;;;;;;2.92;74.27;96495.82;1684799;85;21000;-80
2022/01/27 12:06:17;;;;;;;13.48;9.23;;;;;;;2.97;74.73;96491.94;1686233;85;21016;-80
2022/01/27 12:08:43;;;;;;;15.23;11.30;;;;;;;3.00;74.80;96485.25;1684696;84;21040;-80
2022/01/27 12:11:11;;;;;;;19.50;12.47;;;;;;;3.06;74.67;96480.05;1715904;83;20950;-80
2022/01/27 12:13:49;;;;;;;14.03;8.30;;;;;;;3.08;74.00;96487.61;1717233;83;21070;-80
2022/01/27 12:19:10;;;;;;;10.43;8.13;;;;;;;2.91;74.18;96486.50;1704823;83;21390;-80